Time;durP1;ratioP1;P1;durP2;ratioP2;P2;SDS_P1;SDS_P2;PMS_P1;PMS_P2;Temp;Humidity;BMP_temperature;BMP_pressure;BME280_temperature;BME280_humidity;BME280_pressure;Samples;Min_cycle;Max_cycle;Signal;HPM_P1;HPM_P2
2022/04/08 00:01:20;;;;;;;8.38;3.40;;;;;;;7.51;50.50;99720.30;1958013;72;21177;-62
2022/04/08 00:03:48;;;;;;;10.43;4.83;;;;;;;7.50;50.58;99717.27;1983896;72;21090;-61
2022/04/08 00:06:17;;;;;;;15.32;3.62;;;;;;;7.51;50.54;99724.23;1983386;72;21086;-59
2022/04/08 00:08:46;;;;;;;9.28;3.77;;;;;;;7.50;50.49;99718.59;1987937;72;21493;-61
2022/04/08 00:11:15;;;;;;;11.35;4.25;;;;;;;7.51;50.45;99717.68;1991180;72;21387;-61
2022/04/08 00:13:44;;;;;;;7.35;4.28;;;;;;;7.50;50.42;99721.20;1993932;72;21524;-60
2022/04/08 00:16:13;;;;;;;9.15;4.00;;;;;;;7.46;50.65;99726.19;1999921;72;21008;-64
2022/04/08 00:18:41;;;;;;;10.58;3.65;;;;;;;7.43;50.57;99718.02;2000818;72;21427;-63
2022/04/08 00:21:10;;;;;;;10.85;4.33;;;;;;;7.42;50.64;99715.45;2000733;72;21079;-63
2022/04/08 00:23:39;;;;;;;9.83;3.92;;;;;;;7.38;50.63;99716.04;2000682;72;21137;-64
2022/04/08 00:26:08;;;;;;;12.75;3.90;;;;;;;7.33;50.89;99724.54;2000615;71;21105;-65
2022/04/08 00:28:36;;;;;;;9.43;3.10;;;;;;;7.30;50.92;99718.11;2000705;72;21459;-62
2022/04/08 00:31:05;;;;;;;17.32;4.05;;;;;;;7.27;50.97;99721.72;2001002;72;21525;-62
2022/04/08 00:33:34;;;;;;;5.55;3.10;;;;;;;7.23;51.23;99709.68;2000833;72;21032;-60
2022/04/08 00:36:02;;;;;;;8.98;3.75;;;;;;;7.21;51.20;99711.52;1995543;72;21446;-63
2022/04/08 00:38:32;;;;;;;8.13;3.87;;;;;;;7.20;51.29;99708.95;1965289;73;21082;-64
2022/04/08 00:41:01;;;;;;;11.12;3.62;;;;;;;7.19;51.29;99705.46;1965237;73;21090;-64
2022/04/08 00:43:38;;;;;;;5.70;3.70;;;;;;;7.16;51.29;99699.06;1965206;73;21058;-64
2022/04/08 00:46:12;;;;;;;12.00;4.60;;;;;;;7.17;51.23;99699.44;1965144;73;21084;-74
2022/04/08 00:48:40;;;;;;;;;;;;;;;7.16;51.24;99700.38;1968239;73;21050;-69
2022/04/08 00:51:09;;;;;;;7.75;2.85;;;;;;;7.17;51.04;99702.53;1964526;71;20116;-62
2022/04/08 00:53:39;;;;;;;8.95;3.85;;;;;;;7.12;51.08;99689.64;1958296;73;21121;-62
2022/04/08 00:56:08;;;;;;;12.93;4.20;;;;;;;7.11;51.14;99703.63;1958134;73;21136;-60
2022/04/08 00:58:37;;;;;;;5.97;2.62;;;;;;;7.11;51.19;99708.87;1958147;73;21148;-63
2022/04/08 01:01:06;;;;;;;8.95;3.58;;;;;;;7.10;51.13;99707.16;1958121;73;21497;-63
2022/04/08 01:03:34;;;;;;;8.88;4.05;;;;;;;7.09;51.19;99713.32;1958319;73;21453;-62
2022/04/08 01:06:03;;;;;;;6.12;3.50;;;;;;;7.08;51.27;99712.48;1958151;73;21112;-64
2022/04/08 01:08:35;;;;;;;6.62;3.65;;;;;;;7.06;51.91;99693.80;1958159;73;21063;-63
2022/04/08 01:11:04;;;;;;;9.45;3.22;;;;;;;7.00;51.93;99702.77;1955601;72;21469;-66
2022/04/08 01:13:34;;;;;;;8.68;3.55;;;;;;;6.99;52.22;99713.28;1958618;72;21527;-64
2022/04/08 01:16:07;;;;;;;8.45;4.28;;;;;;;6.94;53.05;99735.27;1978762;72;21101;-64
2022/04/08 01:18:37;;;;;;;9.15;4.17;;;;;;;6.96;53.40;99743.91;1965564;72;21224;-61
2022/04/08 01:21:07;;;;;;;9.45;4.62;;;;;;;7.01;53.03;99708.84;1972442;72;21188;-62
2022/04/08 01:23:36;;;;;;;14.05;3.90;;;;;;;7.08;53.13;99677.57;1954470;73;21035;-63
2022/04/08 01:26:06;;;;;;;11.60;3.80;;;;;;;7.14;53.01;99690.43;1951844;72;21096;-63
2022/04/08 01:28:35;;;;;;;17.60;4.90;;;;;;;7.17;53.44;99707.77;1923759;74;21042;-65
2022/04/08 01:31:04;;;;;;;17.73;7.97;;;;;;;7.23;53.34;99697.90;1931105;72;21134;-60
2022/04/08 01:33:33;;;;;;;8.05;3.45;;;;;;;7.29;53.17;99683.23;1945698;72;21199;-61
2022/04/08 01:36:01;;;;;;;15.75;2.98;;;;;;;7.34;53.49;99674.73;1955111;72;21145;-65
2022/04/08 01:38:30;;;;;;;10.98;4.50;;;;;;;7.37;53.97;99668.96;1955885;72;21114;-64
2022/04/08 01:41:00;;;;;;;14.98;4.87;;;;;;;7.39;53.70;99661.42;1878299;71;21218;-63
2022/04/08 01:43:29;;;;;;;8.78;3.92;;;;;;;7.41;53.72;99650.87;1873050;76;21437;-61
2022/04/08 01:45:58;;;;;;;7.65;3.22;;;;;;;7.39;53.68;99661.42;1867898;76;21528;-64
2022/04/08 01:48:26;;;;;;;11.03;4.30;;;;;;;7.42;53.83;99663.07;1877242;76;21437;-61
2022/04/08 01:50:55;;;;;;;15.28;3.87;;;;;;;7.42;53.82;99649.98;1878817;76;21647;-60
2022/04/08 01:53:24;;;;;;;11.25;4.75;;;;;;;7.43;53.82;99646.42;1877041;76;21541;-60
2022/04/08 01:55:53;;;;;;;11.63;4.55;;;;;;;7.43;53.97;99642.49;1879172;76;21096;-59
2022/04/08 01:58:21;;;;;;;11.10;5.30;;;;;;;7.42;54.09;99635.57;1879015;76;21594;-60
2022/04/08 02:00:50;;;;;;;14.13;4.72;;;;;;;7.45;54.07;99640.22;1878755;76;21185;-66
2022/04/08 02:03:20;;;;;;;11.38;4.97;;;;;;;7.48;54.13;99649.23;1878182;76;21062;-62
2022/04/08 02:05:49;;;;;;;9.15;3.98;;;;;;;7.51;54.11;99646.95;1876716;76;21110;-66
2022/04/08 02:08:17;;;;;;;10.43;4.30;;;;;;;7.54;54.39;99631.95;1869421;76;21039;-63
2022/04/08 02:10:46;;;;;;;15.93;4.40;;;;;;;7.60;54.27;99630.83;1871987;75;21159;-64
2022/04/08 02:13:14;;;;;;;15.75;6.05;;;;;;;7.61;54.79;99625.97;1845863;76;21109;-62
2022/04/08 02:15:43;;;;;;;25.40;8.98;;;;;;;7.61;55.78;99605.01;1874091;76;21462;-65
2022/04/08 02:18:12;;;;;;;19.12;7.55;;;;;;;7.61;55.87;99607.63;1876595;76;21118;-65
2022/04/08 02:20:41;;;;;;;21.23;6.47;;;;;;;7.60;55.89;99594.16;1876359;76;21199;-64
2022/04/08 02:23:09;;;;;;;15.23;5.80;;;;;;;7.60;56.80;99599.39;1859494;76;21473;-62
2022/04/08 02:25:39;;;;;;;18.73;6.87;;;;;;;7.64;56.58;99590.94;1875643;76;21551;-62
2022/04/08 02:28:07;;;;;;;21.10;7.83;;;;;;;7.70;56.19;99591.48;1854415;76;21128;-62
2022/04/08 02:30:37;;;;;;;27.62;9.58;;;;;;;7.76;55.94;99600.84;1849629;76;21047;-62
2022/04/08 02:33:05;;;;;;;33.45;10.43;;;;;;;7.81;56.50;99590.16;1876386;76;21593;-63
2022/04/08 02:35:34;;;;;;;26.00;8.58;;;;;;;7.86;56.27;99580.33;1876585;75;21533;-62
2022/04/08 02:38:03;;;;;;;18.02;7.75;;;;;;;7.91;56.17;99578.31;1867895;76;21531;-62
2022/04/08 02:40:32;;;;;;;23.35;6.67;;;;;;;7.98;56.02;99571.03;1866594;75;21074;-62
2022/04/08 02:43:01;;;;;;;14.68;6.15;;;;;;;8.03;55.79;99562.50;1864484;77;21020;-62
2022/04/08 02:45:30;;;;;;;16.65;8.00;;;;;;;8.08;55.74;99574.93;1864501;77;21146;-63
2022/04/08 02:47:58;;;;;;;18.55;7.15;;;;;;;8.11;55.87;99570.83;1864502;77;21000;-63
2022/04/08 02:50:27;;;;;;;19.92;8.03;;;;;;;8.14;55.88;99569.86;1872547;76;21047;-64
2022/04/08 02:52:56;;;;;;;16.50;7.67;;;;;;;8.15;55.92;99568.91;1877616;75;21102;-66
2022/04/08 02:55:24;;;;;;;22.42;8.35;;;;;;;8.17;55.94;99565.75;1877884;76;21051;-64
2022/04/08 02:57:53;;;;;;;34.90;7.95;;;;;;;8.19;55.94;99552.11;1881005;76;21008;-67
2022/04/08 03:00:22;;;;;;;15.48;7.20;;;;;;;8.21;56.10;99552.91;1880525;76;21031;-66
2022/04/08 03:02:50;;;;;;;18.60;6.70;;;;;;;8.22;56.29;99565.08;1874896;76;21520;-68
2022/04/08 03:05:19;;;;;;;15.18;6.58;;;;;;;8.23;56.13;99561.55;1880507;76;21463;-67
2022/04/08 03:07:48;;;;;;;18.23;6.95;;;;;;;8.23;56.17;99558.92;1879230;76;21049;-67
2022/04/08 03:10:16;;;;;;;17.25;9.13;;;;;;;8.24;56.22;99557.98;1871913;76;21110;-64
2022/04/08 03:12:45;;;;;;;16.12;5.78;;;;;;;8.24;56.48;99559.30;1880910;76;21135;-67
2022/04/08 03:15:14;;;;;;;9.65;4.33;;;;;;;8.21;57.38;99550.28;1881136;76;21037;-66
2022/04/08 03:17:42;;;;;;;10.80;4.50;;;;;;;8.23;57.45;99540.56;1881055;75;21515;-69
2022/04/08 03:20:12;;;;;;;10.05;4.62;;;;;;;8.27;58.44;99539.02;1881100;76;21153;-65
2022/04/08 03:22:40;;;;;;;15.08;4.72;;;;;;;8.32;58.93;99533.56;1880735;76;20999;-67
2022/04/08 03:25:09;;;;;;;23.85;6.17;;;;;;;8.36;60.13;99542.97;1877356;76;21034;-67
2022/04/08 03:27:38;;;;;;;8.13;2.98;;;;;;;8.40;60.88;99537.95;1867847;77;21039;-68
2022/04/08 03:30:08;;;;;;;7.55;3.58;;;;;;;8.46;61.29;99538.98;1867830;77;21035;-67
2022/04/08 03:32:36;;;;;;;14.38;4.03;;;;;;;8.51;61.11;99547.95;1867961;77;21015;-67
2022/04/08 03:35:06;;;;;;;17.57;5.10;;;;;;;8.56;61.14;99549.02;1867870;77;21067;-63
2022/04/08 03:37:35;;;;;;;20.10;6.28;;;;;;;8.59;61.23;99550.20;1878586;76;21019;-66
2022/04/08 03:40:04;;;;;;;8.40;3.70;;;;;;;8.61;61.15;99553.59;1880929;75;21055;-65
2022/04/08 03:42:33;;;;;;;10.95;4.80;;;;;;;8.62;61.49;99546.11;1880773;76;21133;-64
2022/04/08 03:45:02;;;;;;;17.67;4.58;;;;;;;8.63;61.65;99546.48;1880508;76;21130;-67
2022/04/08 03:47:30;;;;;;;14.40;4.58;;;;;;;8.64;61.46;99552.13;1879062;76;21462;-65
2022/04/08 03:49:59;;;;;;;12.88;5.72;;;;;;;8.68;61.31;99563.70;1879085;76;21129;-64
2022/04/08 03:52:32;;;;;;;10.72;4.20;;;;;;;8.72;60.95;99540.77;1879261;76;21047;-64
2022/04/08 03:54:59;;;;;;;18.52;4.97;;;;;;;8.80;60.60;99549.59;1878837;76;21137;-66
2022/04/08 03:57:28;;;;;;;14.15;4.28;;;;;;;8.89;60.25;99546.50;1881034;76;21027;-65
2022/04/08 03:59:56;;;;;;;13.55;3.83;;;;;;;8.95;59.98;99552.74;1880929;76;21071;-63
2022/04/08 04:02:25;;;;;;;13.72;3.92;;;;;;;9.02;59.87;99548.88;1881064;76;21011;-63
2022/04/08 04:04:59;;;;;;;9.33;3.30;;;;;;;9.10;59.91;99551.58;1880952;76;21043;-67
2022/04/08 04:07:24;;;;;;;12.30;3.92;;;;;;;9.17;59.81;99557.73;1880535;76;21102;-65
2022/04/08 04:09:53;;;;;;;13.20;4.40;;;;;;;9.28;60.24;99554.08;1880893;76;21051;-67
2022/04/08 04:12:21;;;;;;;14.23;3.52;;;;;;;9.37;59.94;99549.25;1880909;75;21079;-68
2022/04/08 04:14:50;;;;;;;7.70;4.35;;;;;;;9.39;59.85;99548.73;1881110;76;21047;-67
2022/04/08 04:17:19;;;;;;;0.72;0.72;;;;;;;9.39;59.87;99553.99;1880178;76;21048;-67
2022/04/08 04:19:47;;;;;;;6.10;2.02;;;;;;;9.48;60.22;99546.94;1879117;76;21470;-67
2022/04/08 04:22:16;;;;;;;1.77;1.17;;;;;;;9.82;64.09;99556.92;1879268;76;21611;-67
2022/04/08 04:24:45;;;;;;;7.95;1.70;;;;;;;10.17;64.74;99554.12;1878986;76;21451;-66
2022/04/08 04:27:14;;;;;;;4.17;1.40;;;;;;;10.40;63.68;99557.64;1879324;76;21125;-65
2022/04/08 04:29:42;;;;;;;2.25;1.17;;;;;;;10.57;62.98;99546.62;1879247;76;21056;-63
2022/04/08 04:32:11;;;;;;;4.53;1.40;;;;;;;10.72;64.26;99552.77;1879184;76;21494;-63
2022/04/08 04:34:40;;;;;;;9.90;1.52;;;;;;;10.82;63.45;99546.84;1879284;76;21490;-62
2022/04/08 04:37:11;;;;;;;6.65;1.27;;;;;;;10.88;63.68;99543.48;1879278;75;21470;-62
2022/04/08 04:39:40;;;;;;;7.70;0.95;;;;;;;10.95;63.17;99553.55;1879109;76;21577;-66
2022/04/08 04:42:09;;;;;;;4.42;1.40;;;;;;;11.04;63.45;99548.22;1880702;76;21083;-67
2022/04/08 04:44:38;;;;;;;3.67;1.35;;;;;;;11.11;63.14;99553.50;1882734;75;21111;-63
2022/04/08 04:47:08;;;;;;;10.93;1.60;;;;;;;11.17;63.48;99549.16;1882865;76;21118;-63
2022/04/08 04:49:36;;;;;;;2.67;1.07;;;;;;;11.25;63.30;99547.85;1882796;76;21047;-63
2022/04/08 04:52:06;;;;;;;4.85;1.07;;;;;;;11.31;63.70;99550.14;1888302;76;21113;-64
2022/04/08 04:54:34;;;;;;;4.30;1.70;;;;;;;11.35;63.55;99545.05;1888410;76;21093;-64
2022/04/08 04:57:03;;;;;;;5.65;2.10;;;;;;;11.38;62.93;99543.55;1888223;76;21172;-63
2022/04/08 04:59:32;;;;;;;25.68;5.75;;;;;;;11.40;62.71;99554.84;1888422;76;21039;-63
2022/04/08 05:02:01;;;;;;;19.95;6.40;;;;;;;11.32;62.27;99562.35;1888302;76;21032;-64
2022/04/08 05:04:30;;;;;;;24.52;6.72;;;;;;;11.22;61.97;99574.41;1888305;75;21482;-65
2022/04/08 05:06:58;;;;;;;11.22;3.45;;;;;;;11.13;61.84;99587.17;1888415;75;21486;-63
2022/04/08 05:09:27;;;;;;;13.78;4.03;;;;;;;11.08;62.02;99583.96;1888321;76;21086;-64
2022/04/08 05:11:56;;;;;;;15.55;5.10;;;;;;;11.05;62.16;99592.52;1889859;76;21129;-65
2022/04/08 05:14:24;;;;;;;13.78;3.27;;;;;;;11.04;62.41;99613.23;1889975;75;21043;-65
2022/04/08 05:16:53;;;;;;;15.38;3.05;;;;;;;11.01;62.36;99616.88;1889836;76;21537;-66
2022/04/08 05:19:22;;;;;;;5.05;1.60;;;;;;;11.04;63.34;99627.23;1889958;76;21051;-65
2022/04/08 05:21:52;;;;;;;3.75;1.30;;;;;;;11.12;64.44;99629.41;1889606;76;21469;-67
2022/04/08 05:24:21;;;;;;;4.17;1.35;;;;;;;11.23;64.38;99622.20;1889947;76;21015;-66
2022/04/08 05:26:49;;;;;;;5.70;1.57;;;;;;;11.34;64.30;99627.67;1889851;75;21109;-64
2022/04/08 05:29:18;;;;;;;3.67;1.12;;;;;;;11.41;64.74;99629.00;1890042;76;21051;-66
2022/04/08 05:31:47;;;;;;;8.45;1.50;;;;;;;11.47;64.63;99605.37;1889746;76;21578;-66
2022/04/08 05:34:16;;;;;;;4.45;2.05;;;;;;;11.53;64.94;99627.43;1889963;76;21105;-67
2022/04/08 05:36:44;;;;;;;5.65;2.55;;;;;;;11.57;64.70;99631.57;1889792;76;21034;-66
2022/04/08 05:39:13;;;;;;;7.25;1.80;;;;;;;11.61;64.54;99623.00;1890038;76;21032;-66
2022/04/08 05:41:42;;;;;;;4.50;1.85;;;;;;;11.63;64.13;99613.20;1889572;76;21251;-65
2022/04/08 05:44:11;;;;;;;9.13;2.22;;;;;;;11.65;63.69;99599.45;1877595;76;21153;-66
2022/04/08 05:46:39;;;;;;;6.37;1.90;;;;;;;11.70;63.37;99589.00;1877520;76;21450;-66
2022/04/08 05:49:09;;;;;;;7.42;1.67;;;;;;;11.75;63.08;99583.45;1877608;76;21083;-66
2022/04/08 05:51:37;;;;;;;3.65;1.45;;;;;;;11.81;62.81;99575.15;1877555;76;21457;-64
2022/04/08 05:54:06;;;;;;;5.12;1.72;;;;;;;11.87;62.56;99560.25;1877714;76;21052;-65
2022/04/08 05:56:35;;;;;;;7.42;1.50;;;;;;;11.94;62.36;99553.67;1877536;76;21102;-64
2022/04/08 05:59:04;;;;;;;7.40;1.85;;;;;;;12.04;62.18;99558.36;1877507;76;21133;-64
2022/04/08 06:01:32;;;;;;;2.40;1.30;;;;;;;12.10;62.01;99564.59;1877383;76;21698;-67
2022/04/08 06:04:01;;;;;;;3.90;1.95;;;;;;;12.14;61.95;99570.03;1874766;76;21036;-65
2022/04/08 06:06:30;;;;;;;2.27;1.25;;;;;;;12.15;61.93;99576.98;1876077;76;21051;-64
2022/04/08 06:08:58;;;;;;;4.45;1.40;;;;;;;12.14;62.12;99587.19;1876028;76;21133;-66
2022/04/08 06:11:27;;;;;;;1.85;1.40;;;;;;;12.14;62.03;99595.10;1876302;76;21125;-65
2022/04/08 06:13:56;;;;;;;7.30;2.40;;;;;;;12.12;62.18;99604.91;1875947;76;21550;-68
2022/04/08 06:16:25;;;;;;;7.62;2.40;;;;;;;12.09;63.66;99614.33;1876102;76;21087;-66
2022/04/08 06:18:55;;;;;;;2.70;1.20;;;;;;;12.04;65.52;99628.28;1876084;76;21483;-65
2022/04/08 06:21:24;;;;;;;8.20;2.05;;;;;;;12.02;65.96;99626.21;1877543;76;21040;-65
2022/04/08 06:23:53;;;;;;;6.90;2.15;;;;;;;11.98;65.39;99625.07;1877601;75;21040;-64
2022/04/08 06:26:21;;;;;;;4.28;1.25;;;;;;;11.94;66.13;99625.38;1877664;75;21048;-65
2022/04/08 06:28:50;;;;;;;8.70;2.10;;;;;;;11.92;66.66;99628.11;1877550;76;21244;-66
2022/04/08 06:31:19;;;;;;;2.87;1.85;;;;;;;11.93;66.78;99630.27;1877488;76;21457;-65
2022/04/08 06:33:48;;;;;;;3.20;1.82;;;;;;;11.93;66.53;99625.86;1877681;76;21059;-66
2022/04/08 06:36:16;;;;;;;10.35;1.22;;;;;;;11.98;66.74;99625.07;1877764;76;21125;-64
2022/04/08 06:38:45;;;;;;;4.90;1.57;;;;;;;12.07;66.58;99634.69;1877687;76;21125;-65
2022/04/08 06:41:14;;;;;;;6.22;1.35;;;;;;;12.07;67.48;99642.61;1877320;76;21040;-64
2022/04/08 06:43:42;;;;;;;0.90;0.55;;;;;;;12.04;67.94;99649.38;1877635;76;21583;-64
2022/04/08 06:46:11;;;;;;;2.72;1.15;;;;;;;12.05;68.16;99653.73;1877836;75;21161;-64
2022/04/08 06:48:40;;;;;;;3.27;0.95;;;;;;;12.07;68.12;99654.00;1877703;76;21044;-65
2022/04/08 06:51:09;;;;;;;9.03;5.25;;;;;;;12.09;68.45;99659.19;1877455;76;21109;-62
2022/04/08 06:53:38;;;;;;;5.78;2.45;;;;;;;12.06;69.25;99662.00;1877507;76;21545;-66
2022/04/08 06:56:07;;;;;;;6.45;1.52;;;;;;;12.04;69.30;99665.22;1877606;76;21489;-66
2022/04/08 06:58:39;;;;;;;9.23;4.72;;;;;;;11.97;70.14;99674.84;1877797;76;21047;-66
2022/04/08 07:01:07;;;;;;;21.45;8.80;;;;;;;11.92;70.64;99668.99;1877693;76;21129;-66
2022/04/08 07:03:36;;;;;;;9.08;4.92;;;;;;;11.91;70.90;99682.27;1877514;76;21458;-62
2022/04/08 07:06:04;;;;;;;7.87;3.17;;;;;;;11.93;71.03;99685.21;1877748;76;21474;-62
2022/04/08 07:08:33;;;;;;;7.12;1.60;;;;;;;12.05;70.75;99691.51;1877539;76;21474;-62
2022/04/08 07:11:02;;;;;;;4.85;1.50;;;;;;;12.15;70.56;99702.33;1877532;76;21563;-62
2022/04/08 07:13:31;;;;;;;6.28;1.67;;;;;;;12.23;70.69;99696.13;1877685;76;21494;-62
2022/04/08 07:16:00;;;;;;;4.08;1.40;;;;;;;12.38;70.31;99696.11;1877810;76;21055;-63
2022/04/08 07:18:30;;;;;;;7.03;0.98;;;;;;;12.51;70.06;99691.73;1876078;76;21533;-63
2022/04/08 07:20:58;;;;;;;4.30;1.42;;;;;;;12.62;70.21;99695.02;1876120;76;21095;-61
2022/04/08 07:23:27;;;;;;;1.10;0.55;;;;;;;12.71;70.40;99699.23;1876247;76;21048;-63
2022/04/08 07:25:56;;;;;;;0.30;0.30;;;;;;;12.79;69.70;99696.56;1876181;76;21040;-63
2022/04/08 07:28:25;;;;;;;0.40;0.30;;;;;;;12.74;69.56;99709.60;1876307;76;21095;-62
2022/04/08 07:30:54;;;;;;;2.08;0.30;;;;;;;12.65;69.71;99698.31;1876014;76;21036;-64
2022/04/08 07:33:22;;;;;;;1.07;0.17;;;;;;;12.58;69.54;99700.97;1876145;76;21095;-64
2022/04/08 07:35:51;;;;;;;0.20;0.20;;;;;;;12.60;69.95;99696.43;1876044;76;21121;-65
2022/04/08 07:38:22;;;;;;;1.77;0.20;;;;;;;12.60;69.77;99694.23;1876172;76;21039;-64
2022/04/08 07:40:50;;;;;;;0.20;0.20;;;;;;;12.58;70.08;99697.00;1876047;76;21113;-64
2022/04/08 07:43:19;;;;;;;0.23;0.20;;;;;;;12.62;69.82;99705.58;1875939;75;21122;-65
2022/04/08 07:45:48;;;;;;;0.33;0.30;;;;;;;12.65;69.70;99705.36;1875922;76;21129;-65
2022/04/08 07:48:16;;;;;;;0.30;0.30;;;;;;;12.60;70.20;99706.13;1876141;76;21148;-64
2022/04/08 07:50:45;;;;;;;0.23;0.20;;;;;;;12.62;70.87;99714.34;1876086;76;21040;-65
2022/04/08 07:53:14;;;;;;;0.10;0.10;;;;;;;12.63;70.55;99709.42;1876125;76;21043;-64
2022/04/08 07:55:43;;;;;;;0.13;0.10;;;;;;;12.61;71.09;99713.95;1876050;76;21415;-64
2022/04/08 07:58:12;;;;;;;0.10;0.10;;;;;;;12.51;71.35;99700.98;1876206;76;21576;-64
2022/04/08 08:00:40;;;;;;;0.40;0.40;;;;;;;12.47;71.81;99710.05;1875972;76;21102;-64
2022/04/08 08:03:09;;;;;;;0.50;0.20;;;;;;;12.46;71.27;99713.62;1876183;76;21534;-65
2022/04/08 08:05:38;;;;;;;0.20;0.20;;;;;;;12.41;71.49;99713.05;1876307;76;21126;-64
2022/04/08 08:08:07;;;;;;;0.10;0.10;;;;;;;12.31;71.69;99707.03;1876004;76;21153;-66
2022/04/08 08:10:36;;;;;;;0.85;0.20;;;;;;;12.24;72.64;99708.84;1876254;76;21036;-64
2022/04/08 08:13:05;;;;;;;1.35;0.20;;;;;;;12.14;73.67;99721.77;1875962;76;21114;-65
2022/04/08 08:15:41;;;;;;;0.20;0.20;;;;;;;12.05;72.71;99711.77;1876148;76;21040;-64
2022/04/08 08:18:08;;;;;;;0.20;0.20;;;;;;;12.02;73.38;99720.70;1875164;76;21098;-65
2022/04/08 08:20:37;;;;;;;0.20;0.20;;;;;;;12.03;72.57;99718.46;1876072;76;21040;-64
2022/04/08 08:23:09;;;;;;;0.30;0.20;;;;;;;12.07;72.46;99723.08;1876037;76;21044;-63
2022/04/08 08:25:38;;;;;;;1.10;0.20;;;;;;;11.96;73.34;99729.84;1875972;76;21008;-63
2022/04/08 08:28:07;;;;;;;0.40;0.40;;;;;;;11.86;74.08;99724.73;1876258;76;21117;-63
2022/04/08 08:30:38;;;;;;;0.20;0.20;;;;;;;11.76;74.68;99724.91;1875903;76;21064;-64
2022/04/08 08:33:06;;;;;;;0.20;0.20;;;;;;;11.69;75.19;99718.30;1875903;75;21044;-67
2022/04/08 08:35:36;;;;;;;2.83;0.47;;;;;;;11.65;76.87;99728.66;1876125;76;21039;-66
2022/04/08 08:38:05;;;;;;;2.22;0.82;;;;;;;11.57;76.04;99726.48;1876148;76;21111;-66
2022/04/08 08:40:35;;;;;;;2.40;0.82;;;;;;;11.56;76.79;99732.23;1877717;76;21474;-65
2022/04/08 08:43:04;;;;;;;1.60;1.30;;;;;;;11.52;77.57;99734.64;1877658;76;21121;-66
2022/04/08 08:45:33;;;;;;;5.00;0.90;;;;;;;11.49;78.08;99737.48;1879650;76;21087;-65
2022/04/08 08:48:03;;;;;;;5.28;1.95;;;;;;;11.47;78.12;99737.17;1880714;76;21501;-65
2022/04/08 08:50:32;;;;;;;5.10;1.15;;;;;;;11.42;78.70;99753.28;1849186;77;21117;-65
2022/04/08 08:53:01;;;;;;;8.03;2.58;;;;;;;11.43;78.87;99727.76;1849362;76;21140;-66
2022/04/08 08:55:30;;;;;;;2.55;0.93;;;;;;;11.56;78.63;99726.95;1849241;77;21086;-66
2022/04/08 08:57:58;;;;;;;5.00;1.37;;;;;;;11.66;78.01;99735.16;1849410;77;21121;-67
2022/04/08 09:00:27;;;;;;;4.30;1.17;;;;;;;11.66;77.90;99742.23;1875356;76;21015;-62
2022/04/08 09:02:56;;;;;;;2.85;1.62;;;;;;;11.63;78.33;99741.09;1878994;76;21494;-63
2022/04/08 09:05:26;;;;;;;7.12;1.55;;;;;;;11.63;78.02;99737.97;1879161;76;21596;-63
2022/04/08 09:07:59;;;;;;;8.48;2.50;;;;;;;11.60;77.71;99742.13;1879179;76;21047;-62
2022/04/08 09:10:30;;;;;;;9.73;3.45;;;;;;;11.55;77.59;99737.11;1879275;76;21110;-62
2022/04/08 09:13:00;;;;;;;11.83;3.67;;;;;;;11.51;78.62;99713.64;1879136;76;21559;-64
2022/04/08 09:15:29;;;;;;;6.78;2.58;;;;;;;11.55;78.46;99742.38;1879089;75;21035;-64
2022/04/08 09:18:13;;;;;;;7.17;2.05;;;;;;;11.58;78.24;99730.34;1879196;76;21039;-63
2022/04/08 09:20:46;;;;;;;5.47;2.10;;;;;;;11.61;78.01;99721.39;1879114;76;21019;-63
2022/04/08 09:23:17;;;;;;;6.62;2.02;;;;;;;11.63;78.03;99723.95;1879180;76;21109;-65
2022/04/08 09:25:48;;;;;;;6.22;1.80;;;;;;;11.62;78.10;99709.92;1878086;76;21443;-64
2022/04/08 09:28:20;;;;;;;7.45;2.00;;;;;;;11.65;78.04;99726.02;1879080;76;21047;-64
2022/04/08 09:30:55;;;;;;;5.78;1.40;;;;;;;11.64;77.86;99736.17;1879410;76;21109;-63
2022/04/08 09:33:24;;;;;;;10.13;1.90;;;;;;;11.55;78.27;99734.48;1879161;76;21149;-63
2022/04/08 09:35:55;;;;;;;7.60;2.02;;;;;;;11.48;77.97;99740.20;1880405;76;21031;-64
2022/04/08 09:38:26;;;;;;;2.58;1.30;;;;;;;11.45;78.06;99741.69;1880662;76;21039;-65
2022/04/08 09:41:10;;;;;;;6.45;1.60;;;;;;;11.44;77.93;99747.92;1879661;76;21560;-66
2022/04/08 09:43:40;;;;;;;3.05;1.07;;;;;;;11.38;77.84;99745.17;1881029;75;21039;-66
2022/04/08 09:46:22;;;;;;;4.12;1.60;;;;;;;11.34;78.28;99755.48;1878902;76;21141;-66
2022/04/08 09:48:51;;;;;;;6.35;1.62;;;;;;;11.27;78.32;99748.87;1877639;76;21139;-64
2022/04/08 09:51:21;;;;;;;3.65;1.12;;;;;;;11.30;78.61;99743.44;1877458;76;21027;-63
2022/04/08 09:53:53;;;;;;;3.30;1.25;;;;;;;11.34;78.79;99744.95;1877617;76;21097;-64
2022/04/08 09:56:24;;;;;;;5.17;0.90;;;;;;;11.48;78.54;99745.00;1877537;75;21048;-63
2022/04/08 09:58:56;;;;;;;2.85;0.70;;;;;;;11.61;78.11;99746.92;1877504;76;21135;-63
2022/04/08 10:01:28;;;;;;;2.77;0.93;;;;;;;11.68;77.63;99761.45;1870644;75;21017;-63
2022/04/08 10:03:57;;;;;;;0.70;0.47;;;;;;;11.62;77.45;99761.78;1875956;76;21584;-65
2022/04/08 10:06:27;;;;;;;0.28;0.25;;;;;;;11.64;77.17;99753.31;1876102;76;21040;-64
2022/04/08 10:08:57;;;;;;;0.40;0.40;;;;;;;11.60;76.51;99769.81;1876188;76;21051;-64
2022/04/08 10:11:34;;;;;;;0.68;0.37;;;;;;;11.55;76.30;99770.06;1876004;76;21113;-64
2022/04/08 10:14:25;;;;;;;1.70;0.35;;;;;;;11.65;76.12;99773.48;1876035;75;21149;-66
2022/04/08 10:16:56;;;;;;;1.10;0.40;;;;;;;11.65;75.94;99781.39;1875965;76;21035;-65
2022/04/08 10:19:25;;;;;;;0.37;0.37;;;;;;;11.55;76.09;99776.66;1876102;76;21106;-65
2022/04/08 10:21:55;;;;;;;0.30;0.30;;;;;;;11.49;76.26;99775.70;1875996;75;21040;-66
2022/04/08 10:24:26;;;;;;;0.50;0.50;;;;;;;11.41;76.52;99788.47;1875951;76;21185;-66
2022/04/08 10:27:13;;;;;;;0.30;0.30;;;;;;;11.40;76.51;99776.24;1846258;77;21047;-63
2022/04/08 10:29:43;;;;;;;0.35;0.35;;;;;;;11.47;76.38;99784.18;1846341;78;21082;-65
2022/04/08 10:32:16;;;;;;;1.27;1.07;;;;;;;11.42;76.33;99798.09;1846238;77;21083;-66
2022/04/08 10:34:45;;;;;;;2.30;0.50;;;;;;;11.28;76.60;99787.48;1846241;77;21133;-65
2022/04/08 10:37:24;;;;;;;2.25;1.05;;;;;;;11.05;76.91;99813.79;1876025;75;21117;-65
2022/04/08 10:39:58;;;;;;;4.08;1.40;;;;;;;10.87;77.67;99806.47;1875951;76;21088;-64
2022/04/08 10:42:28;;;;;;;2.85;1.27;;;;;;;10.69;78.26;99813.11;1875854;75;21137;-65
2022/04/08 10:44:57;;;;;;;1.30;1.10;;;;;;;10.60;78.29;99803.08;1875878;76;21044;-65
2022/04/08 10:47:27;;;;;;;2.42;1.22;;;;;;;10.57;78.35;99823.00;1875976;76;21576;-64
2022/04/08 10:50:04;;;;;;;2.33;1.15;;;;;;;10.48;78.96;99824.34;1876213;76;21102;-66
2022/04/08 10:52:41;;;;;;;2.22;1.17;;;;;;;10.47;78.95;99816.52;1876034;76;21035;-66
2022/04/08 10:55:12;;;;;;;3.65;1.32;;;;;;;10.51;79.60;99829.89;1876271;76;21012;-64
2022/04/08 10:57:49;;;;;;;2.47;1.55;;;;;;;10.49;79.53;99792.28;1875986;76;21040;-66
2022/04/08 11:00:21;;;;;;;2.90;0.95;;;;;;;10.46;79.54;99827.52;1876087;76;21028;-65
2022/04/08 11:02:52;;;;;;;4.03;1.60;;;;;;;10.55;79.59;99819.13;1876060;76;21458;-65
2022/04/08 11:05:21;;;;;;;4.00;1.47;;;;;;;10.71;79.60;99812.55;1876248;76;21123;-66
2022/04/08 11:07:51;;;;;;;7.47;1.60;;;;;;;10.77;79.28;99813.55;1876276;76;21052;-65
2022/04/08 11:10:22;;;;;;;7.00;2.75;;;;;;;10.82;79.56;99822.03;1876171;76;21043;-65
2022/04/08 11:12:54;;;;;;;5.12;1.30;;;;;;;10.87;79.66;99824.91;1876154;76;21047;-66
2022/04/08 11:15:27;;;;;;;4.80;2.60;;;;;;;10.84;79.33;99821.11;1876083;75;21483;-65
2022/04/08 11:17:56;;;;;;;7.20;3.33;;;;;;;10.86;79.32;99820.55;1876000;76;21483;-64
2022/04/08 11:20:25;;;;;;;5.12;2.05;;;;;;;10.76;79.26;99823.69;1875999;76;21016;-67
2022/04/08 11:22:55;;;;;;;5.65;2.50;;;;;;;10.82;79.16;99819.39;1876219;76;21075;-67
2022/04/08 11:25:29;;;;;;;7.50;2.83;;;;;;;10.84;79.14;99827.69;1876123;76;21044;-65
2022/04/08 11:28:06;;;;;;;9.68;2.50;;;;;;;10.90;79.17;99834.80;1876029;76;21036;-65
2022/04/08 11:30:38;;;;;;;12.03;3.80;;;;;;;10.92;78.92;99810.98;1876048;76;21102;-65
2022/04/08 11:33:20;;;;;;;9.75;3.22;;;;;;;10.86;78.74;99834.56;1875326;76;21036;-65
2022/04/08 11:35:51;;;;;;;9.35;2.90;;;;;;;10.85;78.63;99848.68;1873629;76;21017;-64
2022/04/08 11:38:21;;;;;;;6.97;2.90;;;;;;;10.75;78.64;99818.06;1871256;76;21081;-65
2022/04/08 11:40:50;;;;;;;4.55;2.35;;;;;;;10.58;79.10;99859.75;1877634;76;21039;-66
2022/04/08 11:43:20;;;;;;;7.92;3.30;;;;;;;10.48;79.24;99844.55;1873756;76;21077;-66
2022/04/08 11:45:50;;;;;;;17.17;4.00;;;;;;;10.39;79.35;99856.41;1874743;76;21545;-65